createdAt,value
2022-12-19T00:00:10.465Z,70.72
2022-12-19T00:03:02.622Z,67.22
2022-12-19T00:05:29.816Z,76.07
2022-12-19T00:07:57.250Z,70.22
2022-12-19T00:10:26.011Z,65.97
2022-12-19T00:12:53.171Z,68.10
2022-12-19T00:15:20.160Z,70.88
2022-12-19T00:17:47.355Z,72.45
2022-12-19T00:20:15.955Z,68.88
2022-12-19T00:22:46.416Z,75.28
2022-12-19T00:25:13.455Z,72.28
2022-12-19T00:27:41.639Z,74.28
2022-12-19T00:30:09.934Z,72.18
2022-12-19T00:32:38.025Z,74.55
2022-12-19T00:35:05.436Z,76.55
2022-12-19T00:37:35.093Z,76.85
2022-12-19T00:40:04.452Z,81.72
2022-12-19T00:42:31.608Z,83.72
2022-12-19T00:44:58.560Z,81.60
2022-12-19T00:47:26.823Z,80.43
2022-12-19T00:49:53.816Z,88.30
2022-12-19T00:52:21.961Z,90.63
2022-12-19T00:54:50.571Z,89.10
2022-12-19T00:57:19.888Z,95.88
2022-12-19T00:59:47.024Z,90.32
2022-12-19T01:02:14.332Z,94.43
2022-12-19T01:04:41.994Z,96.80
2022-12-19T01:07:13.008Z,91.82
2022-12-19T01:09:40.109Z,101.25
2022-12-19T01:12:29.881Z,100.57
2022-12-19T01:15:04.481Z,86.78
2022-12-19T01:17:37.780Z,100.38
2022-12-19T01:20:21.368Z,81.22
2022-12-19T01:22:59.921Z,85.53
2022-12-19T01:25:28.322Z,85.07
2022-12-19T01:27:57.310Z,94.28
2022-12-19T01:30:25.212Z,89.05
2022-12-19T01:32:53.808Z,88.53
2022-12-19T01:35:21.673Z,87.45
2022-12-19T01:38:07.627Z,86.38
2022-12-19T01:40:36.893Z,84.82
2022-12-19T01:43:04.931Z,83.78
2022-12-19T01:45:36.603Z,87.13
2022-12-19T01:48:15.842Z,85.18
2022-12-19T01:51:04.026Z,79.28
2022-12-19T01:53:49.753Z,83.75
2022-12-19T01:56:29.216Z,75.32
2022-12-19T01:59:06.503Z,81.32
2022-12-19T02:01:47.689Z,78.82
2022-12-19T02:04:26.272Z,87.78
2022-12-19T02:06:59.461Z,82.82
2022-12-19T02:09:33.460Z,82.68
2022-12-19T02:12:01.103Z,84.70
2022-12-19T02:14:29.630Z,80.30
2022-12-19T02:17:32.841Z,86.63
2022-12-19T02:20:25.137Z,77.35
2022-12-19T02:23:00.968Z,83.05
2022-12-19T02:25:46.899Z,82.88
2022-12-19T02:28:50.246Z,79.57
2022-12-19T02:31:48.054Z,81.63
2022-12-19T02:34:44.689Z,87.20
2022-12-19T02:37:48.119Z,82.55
2022-12-19T02:40:39.286Z,77.60
2022-12-19T02:43:10.388Z,86.15
2022-12-19T02:45:39.827Z,84.85
2022-12-19T02:48:09.262Z,85.53
2022-12-19T02:50:45.341Z,85.90
2022-12-19T02:53:16.179Z,86.82
2022-12-19T02:56:10.381Z,79.50
2022-12-19T02:59:12.904Z,81.50
2022-12-19T03:02:07.866Z,85.90
2022-12-19T03:05:02.819Z,82.45
2022-12-19T03:08:05.992Z,85.60
2022-12-19T03:10:43.643Z,87.93
2022-12-19T03:13:50.306Z,89.55
2022-12-19T03:16:17.716Z,85.95
2022-12-19T03:18:45.479Z,79.18
2022-12-19T03:21:37.027Z,86.18
2022-12-19T03:24:08.007Z,82.90
2022-12-19T03:26:43.377Z,92.38
2022-12-19T03:29:59.590Z,86.68
2022-12-19T03:32:30.501Z,86.18
2022-12-19T03:35:04.447Z,88.32
2022-12-19T03:37:39.499Z,80.30
2022-12-19T03:40:17.315Z,80.65
2022-12-19T03:43:07.700Z,83.40
2022-12-19T03:45:44.737Z,85.80
2022-12-19T03:48:38.754Z,84.15
2022-12-19T03:51:29.133Z,91.07
2022-12-19T03:54:08.590Z,92.43
2022-12-19T03:56:44.667Z,82.10
2022-12-19T03:59:22.652Z,84.72
2022-12-19T04:01:53.911Z,78.55
2022-12-19T04:04:24.038Z,83.83
2022-12-19T04:06:52.988Z,79.88
2022-12-19T04:09:23.954Z,80.07
2022-12-19T04:12:00.198Z,83.70
2022-12-19T04:14:33.499Z,77.15
2022-12-19T04:17:31.172Z,85.80
2022-12-19T04:20:06.241Z,91.22
2022-12-19T04:23:07.894Z,81.95
2022-12-19T04:25:45.365Z,85.43
2022-12-19T04:28:26.996Z,84.82
2022-12-19T04:30:55.002Z,83.93
2022-12-19T04:33:22.149Z,85.93
2022-12-19T04:35:49.488Z,79.05
2022-12-19T04:38:16.767Z,77.90
2022-12-19T04:40:44.291Z,79.72
2022-12-19T04:43:11.176Z,87.43
2022-12-19T04:45:41.995Z,79.07
2022-12-19T04:48:09.749Z,80.82
2022-12-19T04:50:37.266Z,73.88
2022-12-19T04:53:05.499Z,75.60
2022-12-19T04:55:33.215Z,76.10
2022-12-19T04:58:06.967Z,75.13
2022-12-19T05:00:34.591Z,73.63
2022-12-19T05:03:01.768Z,74.53
2022-12-19T05:05:29.755Z,78.10
2022-12-19T05:07:56.646Z,75.68
2022-12-19T05:10:24.082Z,80.22
2022-12-19T05:12:51.121Z,74.63
2022-12-19T05:15:18.531Z,72.07
2022-12-19T05:17:45.427Z,66.55
2022-12-19T05:20:12.820Z,73.60
2022-12-19T05:22:39.775Z,70.75
2022-12-19T05:25:08.109Z,81.22
2022-12-19T05:27:35.274Z,75.93
2022-12-19T05:30:02.693Z,75.05
2022-12-19T05:32:32.219Z,74.70
2022-12-19T05:34:59.444Z,71.63
2022-12-19T05:37:26.606Z,69.82
2022-12-19T05:39:53.883Z,76.10
2022-12-19T05:42:21.059Z,70.93
2022-12-19T05:44:48.296Z,77.13
2022-12-19T05:47:15.199Z,79.63
2022-12-19T05:49:42.526Z,69.53
2022-12-19T05:52:09.471Z,76.32
2022-12-19T05:54:37.099Z,79.22
2022-12-19T05:57:04.295Z,74.63
2022-12-19T05:59:31.603Z,73.30
2022-12-19T06:01:58.557Z,75.30
2022-12-19T06:04:26.922Z,64.82
2022-12-19T06:06:54.052Z,71.32
2022-12-19T06:09:21.291Z,71.80
2022-12-19T06:11:48.578Z,77.72
2022-12-19T06:14:15.909Z,72.10
2022-12-19T06:16:42.900Z,78.72
2022-12-19T06:19:10.179Z,78.28
2022-12-19T06:21:42.242Z,76.03
2022-12-19T06:24:15.139Z,83.88
2022-12-19T06:26:42.279Z,74.63
2022-12-19T06:29:09.742Z,85.30
2022-12-19T06:31:37.000Z,86.55
2022-12-19T06:34:04.303Z,80.15
2022-12-19T06:36:31.606Z,76.40
2022-12-19T06:38:59.312Z,84.05
2022-12-19T06:41:45.891Z,76.53
2022-12-19T06:44:17.418Z,79.90
2022-12-19T06:46:44.720Z,78.30
2022-12-19T06:49:12.422Z,74.63
2022-12-19T06:51:39.500Z,71.10
2022-12-19T06:54:06.834Z,74.65
2022-12-19T06:56:37.056Z,71.85
2022-12-19T06:59:07.101Z,76.60
2022-12-19T07:01:50.557Z,72.20
2022-12-19T07:04:26.666Z,75.38
2022-12-19T07:06:54.313Z,78.93
2022-12-19T07:09:22.427Z,72.72
2022-12-19T07:11:49.574Z,73.97
2022-12-19T07:14:16.754Z,76.50
2022-12-19T07:16:43.873Z,69.03
2022-12-19T07:19:12.452Z,71.70
2022-12-19T07:21:40.261Z,74.63
2022-12-19T07:24:08.908Z,72.30
2022-12-19T07:26:36.259Z,78.65
2022-12-19T07:29:04.510Z,78.45
2022-12-19T07:31:31.525Z,76.20
2022-12-19T07:33:59.260Z,77.15
2022-12-19T07:36:26.546Z,87.05
2022-12-19T07:38:53.799Z,85.38
2022-12-19T07:41:20.847Z,72.43
2022-12-19T07:43:48.282Z,80.43
2022-12-19T07:46:15.326Z,86.07
2022-12-19T07:48:42.861Z,87.00
2022-12-19T07:51:09.897Z,78.80
2022-12-19T07:53:37.162Z,77.93
2022-12-19T07:56:04.255Z,83.35
2022-12-19T07:58:31.822Z,78.93
2022-12-19T08:01:03.463Z,89.65
2022-12-19T08:03:33.379Z,86.90
2022-12-19T08:06:06.745Z,95.93
2022-12-19T08:08:35.303Z,82.00
2022-12-19T08:11:11.049Z,79.15
2022-12-19T08:13:44.645Z,87.03
2022-12-19T08:16:14.406Z,83.47
2022-12-19T08:18:41.714Z,80.15
2022-12-19T08:21:10.764Z,79.93
2022-12-19T08:23:41.305Z,87.57
2022-12-19T08:26:15.376Z,80.78
2022-12-19T08:28:43.410Z,87.25
2022-12-19T08:31:16.840Z,86.15
2022-12-19T08:33:44.454Z,86.28
2022-12-19T08:36:15.106Z,90.25
2022-12-19T08:38:42.454Z,93.07
2022-12-19T08:41:10.282Z,90.90
2022-12-19T08:43:38.335Z,89.57
2022-12-19T08:46:06.254Z,89.60
2022-12-19T08:48:34.299Z,94.43
2022-12-19T08:51:05.661Z,99.80
2022-12-19T08:53:36.699Z,91.90
2022-12-19T08:56:13.932Z,97.55
2022-12-19T08:58:42.335Z,101.45
2022-12-19T09:01:15.180Z,105.40
2022-12-19T09:04:19.096Z,101.63
2022-12-19T09:06:30.028Z,94.45
2022-12-19T09:09:00.198Z,113.80
2022-12-19T09:11:28.313Z,109.90
2022-12-19T09:13:57.999Z,105.88
2022-12-19T09:16:28.366Z,106.57
2022-12-19T09:18:58.777Z,106.97
2022-12-19T09:21:31.887Z,97.40
2022-12-19T09:24:07.134Z,116.40
2022-12-19T09:26:35.785Z,110.25
2022-12-19T09:29:05.028Z,105.25
2022-12-19T09:31:39.516Z,108.57
2022-12-19T09:34:06.830Z,112.35
2022-12-19T09:36:34.508Z,120.13
2022-12-19T09:39:02.186Z,116.35
2022-12-19T09:42:13.812Z,115.47
2022-12-19T09:45:31.799Z,109.15
2022-12-19T09:48:01.562Z,116.18
2022-12-19T09:50:41.173Z,115.00
2022-12-19T09:53:39.187Z,111.15
2022-12-19T09:56:15.794Z,108.75
2022-12-19T09:59:08.548Z,111.18
2022-12-19T10:01:56.204Z,111.13
2022-12-19T10:04:28.110Z,109.72
2022-12-19T10:07:11.272Z,114.18
2022-12-19T10:12:25.380Z,113.15
2022-12-19T10:13:12.944Z,112.18
2022-12-19T10:16:03.759Z,102.43
2022-12-19T10:18:57.055Z,105.25
2022-12-19T10:22:18.354Z,99.07
2022-12-19T10:25:12.076Z,109.78
2022-12-19T10:27:59.183Z,101.30
2022-12-19T10:30:36.518Z,100.28
2022-12-19T10:33:49.964Z,94.45
2022-12-19T10:36:17.407Z,105.63
2022-12-19T10:39:22.429Z,94.40
2022-12-19T10:41:58.731Z,96.55
2022-12-19T10:44:54.082Z,91.97
2022-12-19T10:48:00.532Z,96.75
2022-12-19T10:50:30.717Z,100.68
2022-12-19T11:26:14.601Z,76.70
2022-12-19T11:29:32.821Z,67.47
2022-12-19T11:32:42.859Z,68.50
2022-12-19T11:35:24.270Z,68.18
2022-12-19T11:38:06.653Z,69.05
2022-12-19T11:40:48.561Z,67.03
2022-12-19T11:43:45.420Z,65.82
2022-12-19T11:46:26.095Z,58.72
2022-12-19T11:49:10.027Z,59.25
2022-12-19T11:52:03.188Z,55.40
2022-12-19T11:54:36.519Z,57.75
2022-12-19T11:57:03.978Z,56.58
2022-12-19T11:59:36.355Z,59.03
2022-12-19T12:02:18.702Z,54.35
2022-12-19T12:05:26.598Z,60.30
2022-12-19T12:10:07.729Z,52.38
2022-12-19T12:28:51.555Z,56.00
2022-12-19T12:31:01.887Z,62.58
2022-12-19T12:31:39.983Z,54.05
2022-12-19T12:31:43.766Z,54.47
2022-12-19T12:32:02.998Z,56.75
2022-12-19T12:32:04.344Z,52.88
2022-12-19T12:35:42.534Z,53.38
2022-12-19T12:40:53.570Z,54.45
2022-12-19T12:43:35.963Z,52.13
2022-12-19T12:46:12.886Z,46.53
2022-12-19T12:48:57.181Z,53.65
2022-12-19T12:51:26.560Z,55.05
2022-12-19T12:54:07.734Z,53.80
2022-12-19T12:56:37.166Z,51.15
2022-12-19T12:59:26.488Z,53.55
2022-12-19T13:01:59.918Z,53.10
2022-12-19T13:04:43.408Z,52.83
2022-12-19T13:07:30.463Z,45.17
2022-12-19T13:10:13.015Z,52.17
2022-12-19T13:15:47.230Z,44.03
2022-12-19T13:18:37.826Z,41.70
2022-12-19T13:21:08.896Z,39.83
2022-12-19T13:23:36.136Z,39.83
2022-12-19T13:26:04.183Z,38.80
2022-12-19T13:28:31.423Z,37.47
2022-12-19T13:31:18.480Z,42.60
2022-12-19T13:33:51.941Z,35.60
2022-12-19T13:39:50.089Z,40.70
2022-12-19T13:40:20.332Z,36.92
2022-12-19T13:43:25.817Z,42.63
2022-12-19T13:46:29.213Z,69.43
2022-12-19T13:49:12.310Z,56.63
2022-12-19T13:51:48.755Z,48.17
2022-12-19T13:54:50.453Z,66.13
2022-12-19T13:57:29.057Z,47.38
2022-12-19T14:00:08.155Z,50.70
2022-12-19T14:02:46.327Z,49.63
2022-12-19T14:05:44.534Z,49.47
2022-12-19T14:08:25.175Z,49.70
2022-12-19T14:11:43.068Z,49.25
2022-12-19T14:14:29.638Z,43.45
2022-12-19T14:17:13.440Z,52.55
2022-12-19T14:19:45.958Z,51.53
2022-12-19T14:22:25.171Z,47.58
2022-12-19T14:24:54.440Z,47.80
2022-12-19T14:28:17.072Z,42.67
2022-12-19T14:30:34.932Z,51.45
2022-12-19T14:33:43.766Z,53.00
2022-12-19T14:36:15.204Z,49.08
2022-12-19T14:39:23.171Z,52.60
2022-12-19T14:42:04.950Z,46.05
2022-12-19T14:51:25.113Z,50.33
2022-12-19T14:54:04.575Z,41.38
2022-12-19T14:54:28.280Z,47.75
2022-12-19T14:54:50.653Z,52.13
2022-12-19T14:59:46.233Z,48.30
2022-12-19T15:02:32.571Z,46.50
2022-12-19T15:05:14.062Z,47.88
2022-12-19T15:07:49.598Z,45.92
2022-12-19T15:11:00.652Z,47.67
2022-12-19T15:14:53.595Z,39.58
2022-12-19T15:16:29.022Z,43.83
2022-12-19T15:19:04.491Z,46.15
2022-12-19T15:21:32.183Z,46.25
2022-12-19T15:23:59.118Z,43.42
2022-12-19T15:26:34.697Z,41.58
2022-12-19T15:29:06.787Z,41.33
2022-12-19T15:31:41.344Z,39.72
2022-12-19T15:34:41.601Z,36.58
2022-12-19T15:37:17.007Z,43.42
2022-12-19T15:39:45.249Z,40.65
2022-12-19T15:42:27.149Z,44.47
2022-12-19T15:44:58.112Z,40.42
2022-12-19T15:47:37.131Z,44.90
2022-12-19T15:50:28.376Z,52.88
2022-12-19T15:52:59.483Z,60.50
2022-12-19T15:55:30.583Z,57.33
2022-12-19T15:58:06.162Z,61.50
2022-12-19T16:00:36.528Z,58.67
2022-12-19T16:05:52.230Z,61.65
2022-12-19T16:08:25.200Z,58.30
2022-12-19T16:11:01.884Z,61.72
2022-12-19T16:13:36.392Z,51.50
2022-12-19T16:16:09.204Z,56.08
2022-12-19T16:18:40.601Z,64.20
2022-12-19T16:21:17.706Z,58.72
2022-12-19T16:23:44.955Z,66.88
2022-12-19T16:26:34.389Z,60.40
2022-12-19T16:29:02.402Z,61.30
2022-12-19T16:31:29.639Z,58.60
2022-12-19T16:33:57.287Z,57.90
2022-12-19T16:36:24.399Z,55.15
2022-12-19T16:38:51.807Z,59.13
2022-12-19T16:41:25.131Z,62.15
2022-12-19T16:43:53.029Z,60.45
2022-12-19T16:46:23.710Z,65.18
2022-12-19T16:48:51.132Z,61.60
2022-12-19T16:51:24.132Z,66.38
2022-12-19T16:53:54.494Z,64.40
2022-12-19T16:56:38.538Z,59.47
2022-12-19T16:59:20.952Z,63.33
2022-12-19T17:01:49.118Z,55.97
2022-12-19T17:04:21.573Z,62.20
2022-12-19T17:06:50.560Z,56.53
2022-12-19T17:09:23.304Z,59.30
2022-12-19T17:11:59.782Z,64.93
2022-12-19T17:14:34.438Z,65.60
2022-12-19T17:17:01.691Z,63.35
2022-12-19T17:19:38.573Z,62.60
2022-12-19T17:22:18.676Z,59.42
2022-12-19T17:24:48.337Z,66.35
2022-12-19T17:27:17.342Z,58.67
2022-12-19T17:29:45.547Z,71.47
2022-12-19T17:32:23.280Z,72.82
2022-12-19T17:34:52.665Z,73.53
2022-12-19T17:37:19.812Z,71.40
2022-12-19T17:39:48.393Z,66.35
2022-12-19T17:42:24.643Z,63.53
2022-12-19T17:44:52.245Z,69.20
2022-12-19T17:47:20.943Z,68.78
2022-12-19T17:49:49.515Z,64.53
2022-12-19T17:52:19.844Z,71.95
2022-12-19T17:54:47.302Z,66.10
2022-12-19T17:57:16.528Z,72.03
2022-12-19T17:59:46.512Z,72.68
2022-12-19T18:02:25.121Z,71.57
2022-12-19T18:04:53.949Z,71.75
2022-12-19T18:07:21.253Z,77.38
2022-12-19T18:09:48.953Z,71.97
2022-12-19T18:12:16.165Z,77.60
2022-12-19T18:14:43.526Z,78.68
2022-12-19T18:17:23.841Z,81.95
2022-12-19T18:19:51.783Z,80.70
2022-12-19T18:22:18.679Z,83.70
2022-12-19T18:24:46.099Z,82.38
2022-12-19T18:27:14.130Z,87.65
2022-12-19T18:29:41.449Z,87.78
2022-12-19T18:32:19.298Z,81.75
2022-12-19T18:34:46.757Z,87.05
2022-12-19T18:37:15.897Z,81.20
2022-12-19T18:39:43.211Z,83.32
2022-12-19T18:42:20.615Z,87.65
2022-12-19T18:44:48.044Z,85.53
2022-12-19T18:47:23.474Z,86.70
2022-12-19T18:49:52.244Z,87.43
2022-12-19T18:52:19.212Z,83.63
2022-12-19T18:54:46.451Z,80.20
2022-12-19T18:57:14.528Z,91.50
2022-12-19T18:59:41.806Z,84.72
2022-12-19T19:02:41.828Z,84.10
2022-12-19T19:05:16.989Z,88.47
2022-12-19T19:07:44.896Z,79.70
2022-12-19T19:10:41.790Z,84.68
2022-12-19T19:13:13.012Z,89.05
2022-12-19T19:15:57.462Z,85.05
2022-12-19T19:18:29.800Z,95.18
2022-12-19T19:21:01.273Z,94.93
2022-12-19T19:23:56.709Z,92.10
2022-12-19T19:26:24.205Z,96.57
2022-12-19T19:28:52.685Z,97.40
2022-12-19T19:31:26.528Z,101.70
2022-12-19T19:34:02.939Z,98.32
2022-12-19T19:36:35.858Z,102.13
2022-12-19T19:41:34.134Z,99.75
2022-12-19T19:44:02.327Z,108.07
2022-12-19T19:46:29.652Z,101.47
2022-12-19T19:48:57.155Z,104.57
2022-12-19T19:51:24.840Z,100.15
2022-12-19T19:53:51.964Z,108.30
2022-12-19T19:56:19.416Z,108.10
2022-12-19T19:58:46.534Z,112.57
2022-12-19T20:01:14.500Z,113.95
2022-12-19T20:03:42.968Z,112.60
2022-12-19T20:06:11.057Z,110.90
2022-12-19T20:08:40.051Z,107.55
2022-12-19T20:11:10.462Z,109.10
2022-12-19T20:13:38.487Z,119.38
2022-12-19T20:16:12.675Z,108.18
2022-12-19T20:18:45.925Z,116.15
2022-12-19T20:21:14.025Z,115.50
2022-12-19T20:23:43.267Z,115.32
2022-12-19T20:26:16.244Z,123.30
2022-12-19T20:31:23.497Z,116.13
2022-12-19T20:33:53.065Z,131.30
2022-12-19T20:36:21.608Z,125.15
2022-12-19T20:38:49.413Z,123.00
2022-12-19T20:41:17.984Z,114.63
2022-12-19T20:43:45.440Z,113.20
2022-12-19T20:46:17.794Z,119.68
2022-12-19T20:48:46.863Z,113.40
2022-12-19T20:51:16.175Z,114.78
2022-12-19T20:53:43.497Z,121.97
2022-12-19T20:56:18.030Z,111.47
2022-12-19T20:58:46.387Z,119.95
2022-12-19T21:01:22.589Z,110.20
2022-12-19T21:03:50.550Z,116.18
2022-12-19T21:06:20.567Z,108.85
2022-12-19T21:08:47.956Z,116.50
2022-12-19T21:11:15.921Z,108.40
2022-12-19T21:13:44.561Z,117.80
2022-12-19T21:16:17.638Z,109.88
2022-12-19T21:18:47.199Z,113.50
2022-12-19T21:21:20.124Z,119.28
2022-12-19T21:26:15.186Z,117.05
2022-12-19T21:28:43.008Z,115.90
2022-12-19T21:31:23.500Z,116.50
2022-12-19T21:33:54.199Z,112.45
2022-12-19T21:36:24.085Z,108.40
2022-12-19T21:38:56.268Z,112.20
2022-12-19T21:41:24.017Z,111.43
2022-12-19T21:43:55.438Z,112.38
2022-12-19T21:46:26.842Z,113.63
2022-12-19T21:48:56.463Z,118.47
2022-12-19T21:51:28.658Z,121.60
2022-12-19T21:54:00.434Z,116.07
2022-12-19T21:56:32.075Z,106.65
2022-12-19T21:59:03.287Z,110.68
2022-12-19T22:01:31.739Z,124.97
2022-12-19T22:04:02.102Z,124.95
2022-12-19T22:06:32.408Z,116.50
2022-12-19T22:09:00.986Z,121.00
2022-12-19T22:11:30.168Z,124.13
2022-12-19T22:14:00.667Z,122.25
2022-12-19T22:16:29.352Z,120.03
2022-12-19T22:18:56.789Z,111.85
2022-12-19T22:21:25.541Z,116.63
2022-12-19T22:23:57.517Z,113.20
2022-12-19T22:26:27.652Z,118.07
2022-12-19T22:28:56.861Z,104.35
2022-12-19T22:31:30.087Z,110.82
2022-12-19T22:34:01.435Z,108.82
2022-12-19T22:36:31.902Z,115.80
2022-12-19T22:39:02.042Z,112.00
2022-12-19T22:41:30.309Z,110.80
2022-12-19T22:43:57.360Z,110.93
2022-12-19T22:46:28.401Z,112.07
2022-12-19T22:48:58.703Z,120.63
2022-12-19T22:51:28.416Z,116.80
2022-12-19T22:53:56.375Z,123.25
2022-12-19T22:56:28.015Z,118.82
2022-12-19T22:58:59.937Z,118.18
2022-12-19T23:01:32.424Z,123.43
2022-12-19T23:04:02.410Z,120.38
2022-12-19T23:06:33.485Z,130.27
2022-12-19T23:09:01.566Z,117.15
2022-12-19T23:11:34.082Z,123.60
2022-12-19T23:14:03.633Z,117.45
2022-12-19T23:16:30.893Z,115.60
2022-12-19T23:18:58.331Z,115.60
2022-12-19T23:21:26.530Z,119.40
2022-12-19T23:23:55.700Z,122.00
2022-12-19T23:26:26.455Z,127.07
2022-12-19T23:29:05.394Z,122.50
2022-12-19T23:39:18.564Z,116.15
2022-12-19T23:41:45.661Z,122.95
2022-12-19T23:44:13.301Z,116.07
2022-12-19T23:46:40.240Z,118.53
2022-12-19T23:49:07.948Z,115.47
2022-12-19T23:51:35.151Z,117.63
2022-12-19T23:54:02.584Z,121.97
2022-12-19T23:56:32.491Z,123.28
2022-12-19T23:59:00.297Z,127.35
